sensor_id;sensor_type;location;lat;lon;timestamp;pressure;altitude;pressure_sealevel;temperature;humidity
37200;BME280;23096;50.892;16.746;2023-11-21T18:32:43;99370.81;;;0.59;83.09
37200;BME280;23096;50.892;16.746;2023-11-21T18:35:09;99374.67;;;0.56;83.08
37200;BME280;23096;50.892;16.746;2023-11-21T18:37:35;99381.56;;;0.53;83.05
37200;BME280;23096;50.892;16.746;2023-11-21T18:40:01;99388.14;;;0.50;83.14
37200;BME280;23096;50.892;16.746;2023-11-21T18:42:26;99389.48;;;0.49;83.21
37200;BME280;23096;50.892;16.746;2023-11-21T18:44:53;99393.70;;;0.49;83.18
37200;BME280;23096;50.892;16.746;2023-11-21T18:47:19;99394.55;;;0.49;83.15
37200;BME280;23096;50.892;16.746;2023-11-21T18:49:45;99394.21;;;0.49;83.16
37200;BME280;23096;50.892;16.746;2023-11-21T18:52:11;99395.23;;;0.50;83.23
37200;BME280;23096;50.892;16.746;2023-11-21T18:54:41;99399.83;;;0.52;83.31
37200;BME280;23096;50.892;16.746;2023-11-21T18:57:08;99403.56;;;0.55;83.35
37200;BME280;23096;50.892;16.746;2023-11-21T18:59:34;99406.59;;;0.52;83.25
37200;BME280;23096;50.892;16.746;2023-11-21T19:02:00;99410.08;;;0.47;83.22
37200;BME280;23096;50.892;16.746;2023-11-21T19:04:31;99415.15;;;0.48;83.32
37200;BME280;23096;50.892;16.746;2023-11-21T19:06:57;99421.41;;;0.48;83.28
37200;BME280;23096;50.892;16.746;2023-11-21T19:09:25;99427.64;;;0.46;83.26
37200;BME280;23096;50.892;16.746;2023-11-21T19:11:51;99429.16;;;0.46;83.29
37200;BME280;23096;50.892;16.746;2023-11-21T19:14:17;99432.85;;;0.43;83.28
37200;BME280;23096;50.892;16.746;2023-11-21T19:16:42;99433.54;;;0.44;83.24
37200;BME280;23096;50.892;16.746;2023-11-21T19:19:11;99438.57;;;0.42;83.13
37200;BME280;23096;50.892;16.746;2023-11-21T19:21:38;99443.98;;;0.42;83.21
37200;BME280;23096;50.892;16.746;2023-11-21T19:24:06;99449.88;;;0.40;83.18
37200;BME280;23096;50.892;16.746;2023-11-21T19:26:31;99455.27;;;0.37;83.06
37200;BME280;23096;50.892;16.746;2023-11-21T19:28:57;99458.92;;;0.33;83.10
37200;BME280;23096;50.892;16.746;2023-11-21T19:31:22;99464.10;;;0.29;83.14
37200;BME280;23096;50.892;16.746;2023-11-21T19:33:48;99466.22;;;0.22;83.07
37200;BME280;23096;50.892;16.746;2023-11-21T19:36:18;99470.40;;;0.20;83.09
37200;BME280;23096;50.892;16.746;2023-11-21T19:38:44;99473.21;;;0.15;83.20
37200;BME280;23096;50.892;16.746;2023-11-21T19:41:20;99477.21;;;0.11;83.24
37200;BME280;23096;50.892;16.746;2023-11-21T19:43:47;99480.42;;;0.11;83.16
37200;BME280;23096;50.892;16.746;2023-11-21T19:46:13;99488.27;;;0.15;83.32
37200;BME280;23096;50.892;16.746;2023-11-21T19:48:39;99493.21;;;0.20;83.45
37200;BME280;23096;50.892;16.746;2023-11-21T19:51:06;99496.10;;;0.22;83.33
37200;BME280;23096;50.892;16.746;2023-11-21T19:53:32;99498.80;;;0.21;83.35
37200;BME280;23096;50.892;16.746;2023-11-21T19:56:02;99499.17;;;0.23;83.30
37200;BME280;23096;50.892;16.746;2023-11-21T19:58:28;99502.23;;;0.24;83.31
37200;BME280;23096;50.892;16.746;2023-11-21T20:00:55;99507.61;;;0.23;83.25
37200;BME280;23096;50.892;16.746;2023-11-21T20:03:21;99512.17;;;0.23;83.23
37200;BME280;23096;50.892;16.746;2023-11-21T20:05:49;99524.82;;;0.20;83.28
37200;BME280;23096;50.892;16.746;2023-11-21T20:08:14;99527.27;;;0.15;83.26
37200;BME280;23096;50.892;16.746;2023-11-21T20:10:44;99526.25;;;0.14;83.21
37200;BME280;23096;50.892;16.746;2023-11-21T20:13:14;99527.12;;;0.16;83.23
37200;BME280;23096;50.892;16.746;2023-11-21T20:15:41;99530.48;;;0.15;83.28
37200;BME280;23096;50.892;16.746;2023-11-21T20:18:09;99531.45;;;0.12;83.34
37200;BME280;23096;50.892;16.746;2023-11-21T20:20:36;99534.84;;;0.12;83.27
37200;BME280;23096;50.892;16.746;2023-11-21T20:23:01;99534.34;;;0.12;83.30
37200;BME280;23096;50.892;16.746;2023-11-21T20:25:29;99537.91;;;0.15;83.37
37200;BME280;23096;50.892;16.746;2023-11-21T20:27:55;99546.70;;;0.14;83.36
37200;BME280;23096;50.892;16.746;2023-11-21T20:30:21;99555.42;;;0.09;83.23
37200;BME280;23096;50.892;16.746;2023-11-21T20:32:48;99561.61;;;0.06;83.17
37200;BME280;23096;50.892;16.746;2023-11-21T20:35:16;99561.90;;;0.03;83.23
37200;BME280;23096;50.892;16.746;2023-11-21T20:37:44;99566.08;;;0.00;83.20
37200;BME280;23096;50.892;16.746;2023-11-21T20:40:11;99565.17;;;-0.04;83.23
37200;BME280;23096;50.892;16.746;2023-11-21T20:42:37;99569.64;;;-0.09;83.26
37200;BME280;23096;50.892;16.746;2023-11-21T20:45:08;99570.95;;;-0.12;83.34
37200;BME280;23096;50.892;16.746;2023-11-21T20:47:35;99570.79;;;-0.12;83.33
37200;BME280;23096;50.892;16.746;2023-11-21T20:50:02;99577.67;;;-0.14;83.23
37200;BME280;23096;50.892;16.746;2023-11-21T20:52:28;99580.31;;;-0.18;83.26
37200;BME280;23096;50.892;16.746;2023-11-21T20:54:54;99588.38;;;-0.21;83.29
37200;BME280;23096;50.892;16.746;2023-11-21T20:57:21;99591.52;;;-0.24;83.41
37200;BME280;23096;50.892;16.746;2023-11-21T20:59:46;99594.05;;;-0.25;83.26
37200;BME280;23096;50.892;16.746;2023-11-21T21:02:14;99596.02;;;-0.28;83.28
37200;BME280;23096;50.892;16.746;2023-11-21T21:04:39;99593.15;;;-0.28;83.43
37200;BME280;23096;50.892;16.746;2023-11-21T21:07:05;99597.73;;;-0.27;83.52
37200;BME280;23096;50.892;16.746;2023-11-21T21:09:32;99595.05;;;-0.25;83.58
37200;BME280;23096;50.892;16.746;2023-11-21T21:11:58;99597.70;;;-0.28;83.33
37200;BME280;23096;50.892;16.746;2023-11-21T21:14:23;99601.33;;;-0.33;83.37
37200;BME280;23096;50.892;16.746;2023-11-21T21:16:52;99609.39;;;-0.35;83.31
37200;BME280;23096;50.892;16.746;2023-11-21T21:19:17;99611.44;;;-0.34;83.53
37200;BME280;23096;50.892;16.746;2023-11-21T21:21:44;99615.23;;;-0.29;83.57
37200;BME280;23096;50.892;16.746;2023-11-21T21:24:09;99617.46;;;-0.27;83.52
37200;BME280;23096;50.892;16.746;2023-11-21T21:26:35;99618.08;;;-0.31;83.41
37200;BME280;23096;50.892;16.746;2023-11-21T21:29:00;99622.92;;;-0.33;83.32
37200;BME280;23096;50.892;16.746;2023-11-21T21:31:26;99629.65;;;-0.35;83.54
37200;BME280;23096;50.892;16.746;2023-11-21T21:33:52;99637.05;;;-0.36;83.51
37200;BME280;23096;50.892;16.746;2023-11-21T21:36:17;99640.53;;;-0.40;83.51
37200;BME280;23096;50.892;16.746;2023-11-21T21:38:45;99643.02;;;-0.42;83.47
37200;BME280;23096;50.892;16.746;2023-11-21T21:41:11;99648.23;;;-0.43;83.45
37200;BME280;23096;50.892;16.746;2023-11-21T21:43:40;99651.92;;;-0.44;83.56
37200;BME280;23096;50.892;16.746;2023-11-21T21:46:06;99650.67;;;-0.48;83.55
37200;BME280;23096;50.892;16.746;2023-11-21T21:48:33;99654.20;;;-0.50;83.48
37200;BME280;23096;50.892;16.746;2023-11-21T21:51:00;99657.88;;;-0.51;83.53
37200;BME280;23096;50.892;16.746;2023-11-21T21:53:26;99661.58;;;-0.52;83.47
37200;BME280;23096;50.892;16.746;2023-11-21T21:55:51;99666.49;;;-0.50;83.58
37200;BME280;23096;50.892;16.746;2023-11-21T21:58:18;99669.77;;;-0.47;83.75
37200;BME280;23096;50.892;16.746;2023-11-21T22:00:43;99673.21;;;-0.44;83.64
37200;BME280;23096;50.892;16.746;2023-11-21T22:03:09;99675.45;;;-0.42;83.66
37200;BME280;23096;50.892;16.746;2023-11-21T22:05:35;99675.95;;;-0.42;83.67
37200;BME280;23096;50.892;16.746;2023-11-21T22:08:01;99677.48;;;-0.41;83.55
37200;BME280;23096;50.892;16.746;2023-11-21T22:10:28;99673.94;;;-0.42;83.60
37200;BME280;23096;50.892;16.746;2023-11-21T22:12:53;99680.30;;;-0.43;83.56
37200;BME280;23096;50.892;16.746;2023-11-21T22:15:20;99685.35;;;-0.44;83.67
37200;BME280;23096;50.892;16.746;2023-11-21T22:17:47;99690.56;;;-0.45;83.48
37200;BME280;23096;50.892;16.746;2023-11-21T22:20:12;99697.76;;;-0.49;83.52
37200;BME280;23096;50.892;16.746;2023-11-21T22:22:38;99699.23;;;-0.52;83.46
37200;BME280;23096;50.892;16.746;2023-11-21T22:25:06;99699.95;;;-0.49;83.63
37200;BME280;23096;50.892;16.746;2023-11-21T22:27:33;99702.86;;;-0.47;83.70
37200;BME280;23096;50.892;16.746;2023-11-21T22:29:59;99705.77;;;-0.44;83.76
37200;BME280;23096;50.892;16.746;2023-11-21T22:32:25;99699.25;;;-0.42;83.65
37200;BME280;23096;50.892;16.746;2023-11-21T22:34:51;99704.98;;;-0.42;83.64
37200;BME280;23096;50.892;16.746;2023-11-21T22:37:17;99706.05;;;-0.47;83.58
37200;BME280;23096;50.892;16.746;2023-11-21T22:39:42;99708.98;;;-0.53;83.53
37200;BME280;23096;50.892;16.746;2023-11-21T22:42:08;99715.45;;;-0.58;83.49
37200;BME280;23096;50.892;16.746;2023-11-21T22:44:33;99720.64;;;-0.61;83.48
37200;BME280;23096;50.892;16.746;2023-11-21T22:46:59;99720.77;;;-0.63;83.48
37200;BME280;23096;50.892;16.746;2023-11-21T22:49:27;99721.88;;;-0.66;83.41
37200;BME280;23096;50.892;16.746;2023-11-21T22:51:55;99723.77;;;-0.72;83.44
37200;BME280;23096;50.892;16.746;2023-11-21T22:54:21;99729.09;;;-0.76;83.53
37200;BME280;23096;50.892;16.746;2023-11-21T22:56:47;99731.40;;;-0.78;83.58
37200;BME280;23096;50.892;16.746;2023-11-21T22:59:16;99733.10;;;-0.78;83.54
37200;BME280;23096;50.892;16.746;2023-11-21T23:01:41;99736.33;;;-0.77;83.54
37200;BME280;23096;50.892;16.746;2023-11-21T23:04:07;99737.56;;;-0.74;83.49
37200;BME280;23096;50.892;16.746;2023-11-21T23:06:33;99733.84;;;-0.75;83.57
37200;BME280;23096;50.892;16.746;2023-11-21T23:08:59;99736.73;;;-0.74;83.58
37200;BME280;23096;50.892;16.746;2023-11-21T23:11:24;99738.17;;;-0.69;83.59
37200;BME280;23096;50.892;16.746;2023-11-21T23:13:50;99734.66;;;-0.68;83.70
37200;BME280;23096;50.892;16.746;2023-11-21T23:16:15;99737.74;;;-0.66;83.66
37200;BME280;23096;50.892;16.746;2023-11-21T23:18:43;99733.94;;;-0.62;83.67
37200;BME280;23096;50.892;16.746;2023-11-21T23:21:12;99740.25;;;-0.59;83.76
37200;BME280;23096;50.892;16.746;2023-11-21T23:23:38;99739.39;;;-0.60;83.66
37200;BME280;23096;50.892;16.746;2023-11-21T23:26:06;99744.55;;;-0.63;83.61
37200;BME280;23096;50.892;16.746;2023-11-21T23:28:31;99744.30;;;-0.67;83.55
37200;BME280;23096;50.892;16.746;2023-11-21T23:30:57;99747.54;;;-0.65;83.61
37200;BME280;23096;50.892;16.746;2023-11-21T23:33:22;99753.35;;;-0.62;83.70
37200;BME280;23096;50.892;16.746;2023-11-21T23:35:50;99758.45;;;-0.60;83.69
37200;BME280;23096;50.892;16.746;2023-11-21T23:38:16;99763.42;;;-0.65;83.64
37200;BME280;23096;50.892;16.746;2023-11-21T23:40:42;99762.48;;;-0.70;83.40
37200;BME280;23096;50.892;16.746;2023-11-21T23:43:08;99764.89;;;-0.74;83.48
37200;BME280;23096;50.892;16.746;2023-11-21T23:45:34;99772.98;;;-0.75;83.58
37200;BME280;23096;50.892;16.746;2023-11-21T23:48:00;99778.05;;;-0.75;83.62
37200;BME280;23096;50.892;16.746;2023-11-21T23:50:25;99783.13;;;-0.74;83.70
37200;BME280;23096;50.892;16.746;2023-11-21T23:52:51;99782.56;;;-0.69;83.79
37200;BME280;23096;50.892;16.746;2023-11-21T23:55:17;99781.30;;;-0.65;83.75
37200;BME280;23096;50.892;16.746;2023-11-21T23:57:43;99785.10;;;-0.61;83.69
